This is the latest recevied weather packets stored in our database for station/object IK2CHZ-3. If no packets are shown the sender has not sent any weather packets the latest 10 day(s).
| Time | Temp. | Humidity | Pressure | Rain* | Wind** | Luminosity | Snow |
|---|---|---|---|---|---|---|---|
| 1777509061 | 13.33° C | 88% | 1021.1 hPa | 1.27 mm | - | - | - |
| 1777508402 | 13.33° C | 87% | 1021.1 hPa | 1.27 mm | - | - | - |
| 1777507742 | 13.33° C | 86% | 1020.9 hPa | 1.27 mm | - | - | - |
| 1777507081 | 13.33° C | 84% | 1020.6 hPa | 1.27 mm | - | - | - |
| 1777506421 | 13.89° C | 81% | 1020.7 hPa | 0.76 mm | - | - | - |
| 1777505760 | 15° C | 77% | 1020.6 hPa | 0 mm | - | - | - |
| 1777505102 | 15.56° C | 71% | 1020.3 hPa | 0 mm | - | - | - |
| 1777504443 | 16.67° C | 69% | 1020.2 hPa | 0 mm | - | - | - |
| 1777503781 | 16.67° C | 67% | 1020 hPa | 0 mm | - | - | - |
| 1777503122 | 16.67° C | 67% | 1019.8 hPa | 0 mm | - | - | - |
| 1777502461 | 16.67° C | 67% | 1019.7 hPa | 0 mm | - | - | - |
| 1777501801 | 17.22° C | 66% | 1019.5 hPa | 0 mm | - | - | - |
| 1777501140 | 17.22° C | 66% | 1019.3 hPa | 0 mm | - | - | - |
| 1777500481 | 17.22° C | 67% | 1018.9 hPa | 0 mm | - | - | - |
| 1777499822 | 17.22° C | 66% | 1018.7 hPa | 0 mm | - | - | - |
| 1777499161 | 17.22° C | 66% | 1018.6 hPa | 0 mm | - | - | - |
| 1777498501 | 17.22° C | 66% | 1018.6 hPa | 0 mm | - | - | - |
| 1777497842 | 17.22° C | 65% | 1018.5 hPa | 0 mm | - | - | - |
| 1777497181 | 17.78° C | 65% | 1018.3 hPa | 0 mm | - | - | - |
| 1777496521 | 17.78° C | 64% | 1018 hPa | 0 mm | - | - | - |
| 1777495862 | 17.78° C | 63% | 1018 hPa | 0 mm | - | - | - |
| 1777495201 | 17.78° C | 63% | 1017.9 hPa | 0 mm | - | - | - |
| 1777494541 | 17.78° C | 63% | 1017.8 hPa | 0 mm | - | - | - |
| 1777493882 | 18.33° C | 63% | 1017.8 hPa | 0 mm | - | - | - |
| 1777493221 | 18.33° C | 62% | 1017.6 hPa | 0 mm | - | - | - |
* Rain latest hour (hover to see other rain measurements)
** Current wind speed in m/s (hover to see current wind gust speed)